sensor_id;sensor_type;location;lat;lon;timestamp;P1;durP1;ratioP1;P2;durP2;ratioP2
24739;SDS011;45234;48.148;17.128;2023-03-31T00:01:06;4.72;;;2.67;;
24739;SDS011;45234;48.148;17.128;2023-03-31T00:03:33;4.28;;;2.20;;
24739;SDS011;45234;48.148;17.128;2023-03-31T00:06:03;3.55;;;2.03;;
24739;SDS011;45234;48.148;17.128;2023-03-31T00:08:36;4.07;;;1.88;;
24739;SDS011;45234;48.148;17.128;2023-03-31T00:11:05;3.58;;;2.10;;
24739;SDS011;45234;48.148;17.128;2023-03-31T00:13:32;4.53;;;3.00;;
24739;SDS011;45234;48.148;17.128;2023-03-31T00:16:01;4.88;;;2.53;;
24739;SDS011;45234;48.148;17.128;2023-03-31T00:18:31;3.75;;;1.83;;
24739;SDS011;45234;48.148;17.128;2023-03-31T00:21:09;3.10;;;1.95;;
24739;SDS011;45234;48.148;17.128;2023-03-31T00:23:40;3.15;;;2.03;;
24739;SDS011;45234;48.148;17.128;2023-03-31T00:26:06;3.97;;;2.33;;
24739;SDS011;45234;48.148;17.128;2023-03-31T00:28:33;4.00;;;2.70;;
24739;SDS011;45234;48.148;17.128;2023-03-31T00:31:01;2.28;;;1.92;;
24739;SDS011;45234;48.148;17.128;2023-03-31T00:33:28;4.47;;;2.15;;
24739;SDS011;45234;48.148;17.128;2023-03-31T00:35:56;3.63;;;2.05;;
24739;SDS011;45234;48.148;17.128;2023-03-31T00:38:30;3.25;;;2.38;;
24739;SDS011;45234;48.148;17.128;2023-03-31T00:40:58;4.35;;;2.53;;
24739;SDS011;45234;48.148;17.128;2023-03-31T00:43:33;4.80;;;2.85;;
24739;SDS011;45234;48.148;17.128;2023-03-31T00:46:16;6.97;;;2.60;;
24739;SDS011;45234;48.148;17.128;2023-03-31T00:48:53;5.60;;;2.80;;
24739;SDS011;45234;48.148;17.128;2023-03-31T00:51:23;6.68;;;2.63;;
24739;SDS011;45234;48.148;17.128;2023-03-31T00:53:54;4.22;;;2.67;;
24739;SDS011;45234;48.148;17.128;2023-03-31T00:58:55;5.50;;;3.55;;
24739;SDS011;45234;48.148;17.128;2023-03-31T01:01:25;7.63;;;3.42;;
24739;SDS011;45234;48.148;17.128;2023-03-31T01:03:52;3.95;;;2.67;;
24739;SDS011;45234;48.148;17.128;2023-03-31T01:06:20;4.45;;;3.00;;
24739;SDS011;45234;48.148;17.128;2023-03-31T01:08:48;5.63;;;2.83;;
24739;SDS011;45234;48.148;17.128;2023-03-31T01:11:19;5.70;;;3.20;;
24739;SDS011;45234;48.148;17.128;2023-03-31T01:13:50;5.80;;;2.92;;
24739;SDS011;45234;48.148;17.128;2023-03-31T01:16:21;5.63;;;2.83;;
24739;SDS011;45234;48.148;17.128;2023-03-31T01:18:48;5.97;;;3.03;;
24739;SDS011;45234;48.148;17.128;2023-03-31T01:24:30;4.75;;;2.70;;
24739;SDS011;45234;48.148;17.128;2023-03-31T01:30:07;3.38;;;2.63;;
24739;SDS011;45234;48.148;17.128;2023-03-31T01:33:08;4.70;;;3.00;;
24739;SDS011;45234;48.148;17.128;2023-03-31T01:38:35;5.55;;;2.63;;
24739;SDS011;45234;48.148;17.128;2023-03-31T01:55:04;2.92;;;2.03;;
24739;SDS011;45234;48.148;17.128;2023-03-31T01:57:38;3.75;;;2.25;;
24739;SDS011;45234;48.148;17.128;2023-03-31T02:00:14;3.25;;;2.05;;
24739;SDS011;45234;48.148;17.128;2023-03-31T02:02:45;3.17;;;2.10;;
24739;SDS011;45234;48.148;17.128;2023-03-31T02:05:29;4.05;;;2.10;;
24739;SDS011;45234;48.148;17.128;2023-03-31T02:08:03;4.55;;;2.22;;
24739;SDS011;45234;48.148;17.128;2023-03-31T02:10:35;4.25;;;2.13;;
24739;SDS011;45234;48.148;17.128;2023-03-31T02:13:03;3.22;;;2.05;;
24739;SDS011;45234;48.148;17.128;2023-03-31T02:15:34;3.55;;;1.98;;
24739;SDS011;45234;48.148;17.128;2023-03-31T02:18:04;4.32;;;2.13;;
24739;SDS011;45234;48.148;17.128;2023-03-31T02:20:38;4.60;;;2.20;;
24739;SDS011;45234;48.148;17.128;2023-03-31T02:23:12;3.42;;;2.20;;
24739;SDS011;45234;48.148;17.128;2023-03-31T02:25:48;4.28;;;2.28;;
24739;SDS011;45234;48.148;17.128;2023-03-31T02:28:24;5.55;;;2.67;;
24739;SDS011;45234;48.148;17.128;2023-03-31T02:31:03;3.95;;;2.22;;
24739;SDS011;45234;48.148;17.128;2023-03-31T02:34:01;3.70;;;2.33;;
24739;SDS011;45234;48.148;17.128;2023-03-31T02:36:29;3.03;;;2.17;;
24739;SDS011;45234;48.148;17.128;2023-03-31T02:38:57;5.72;;;2.88;;
24739;SDS011;45234;48.148;17.128;2023-03-31T02:41:30;3.13;;;2.28;;
24739;SDS011;45234;48.148;17.128;2023-03-31T02:43:58;4.57;;;2.10;;
24739;SDS011;45234;48.148;17.128;2023-03-31T02:49:44;5.47;;;2.60;;
24739;SDS011;45234;48.148;17.128;2023-03-31T02:55:17;3.05;;;2.20;;
24739;SDS011;45234;48.148;17.128;2023-03-31T03:00:48;3.10;;;2.70;;
24739;SDS011;45234;48.148;17.128;2023-03-31T03:04:32;6.38;;;3.10;;
24739;SDS011;45234;48.148;17.128;2023-03-31T03:09:25;4.45;;;2.80;;
24739;SDS011;45234;48.148;17.128;2023-03-31T03:12:15;5.18;;;3.42;;
24739;SDS011;45234;48.148;17.128;2023-03-31T03:20:07;6.25;;;2.95;;
24739;SDS011;45234;48.148;17.128;2023-03-31T03:22:36;3.00;;;2.60;;
24739;SDS011;45234;48.148;17.128;2023-03-31T03:25:04;4.70;;;2.95;;
24739;SDS011;45234;48.148;17.128;2023-03-31T03:27:32;4.22;;;3.00;;
24739;SDS011;45234;48.148;17.128;2023-03-31T03:30:04;3.80;;;2.88;;
24739;SDS011;45234;48.148;17.128;2023-03-31T03:32:33;5.05;;;3.42;;
24739;SDS011;45234;48.148;17.128;2023-03-31T03:35:00;4.55;;;3.22;;
24739;SDS011;45234;48.148;17.128;2023-03-31T03:37:28;4.15;;;2.92;;
24739;SDS011;45234;48.148;17.128;2023-03-31T03:39:55;4.25;;;3.15;;
24739;SDS011;45234;48.148;17.128;2023-03-31T03:42:22;3.92;;;3.33;;
24739;SDS011;45234;48.148;17.128;2023-03-31T03:44:49;5.95;;;3.60;;
24739;SDS011;45234;48.148;17.128;2023-03-31T03:47:16;6.20;;;3.45;;
24739;SDS011;45234;48.148;17.128;2023-03-31T03:49:43;6.28;;;3.95;;
24739;SDS011;45234;48.148;17.128;2023-03-31T03:52:10;7.43;;;3.80;;
24739;SDS011;45234;48.148;17.128;2023-03-31T03:54:37;5.03;;;3.67;;
24739;SDS011;45234;48.148;17.128;2023-03-31T03:57:07;6.45;;;3.85;;
24739;SDS011;45234;48.148;17.128;2023-03-31T03:59:34;6.22;;;4.20;;
24739;SDS011;45234;48.148;17.128;2023-03-31T04:02:01;5.00;;;4.20;;
24739;SDS011;45234;48.148;17.128;2023-03-31T04:04:28;6.20;;;4.45;;
24739;SDS011;45234;48.148;17.128;2023-03-31T04:06:55;7.82;;;3.38;;
24739;SDS011;45234;48.148;17.128;2023-03-31T04:09:21;7.03;;;3.75;;
24739;SDS011;45234;48.148;17.128;2023-03-31T04:11:48;6.07;;;3.60;;
24739;SDS011;45234;48.148;17.128;2023-03-31T04:14:15;5.85;;;3.92;;
24739;SDS011;45234;48.148;17.128;2023-03-31T04:16:42;6.35;;;3.50;;
24739;SDS011;45234;48.148;17.128;2023-03-31T04:19:12;6.45;;;3.85;;
24739;SDS011;45234;48.148;17.128;2023-03-31T04:21:42;6.70;;;4.35;;
24739;SDS011;45234;48.148;17.128;2023-03-31T04:24:10;7.35;;;4.20;;
24739;SDS011;45234;48.148;17.128;2023-03-31T04:26:40;7.32;;;4.40;;
24739;SDS011;45234;48.148;17.128;2023-03-31T04:29:11;8.23;;;5.30;;
24739;SDS011;45234;48.148;17.128;2023-03-31T04:31:39;9.38;;;5.88;;
24739;SDS011;45234;48.148;17.128;2023-03-31T04:34:08;8.45;;;6.28;;
24739;SDS011;45234;48.148;17.128;2023-03-31T04:36:39;11.70;;;6.93;;
24739;SDS011;45234;48.148;17.128;2023-03-31T04:39:12;13.32;;;5.95;;
24739;SDS011;45234;48.148;17.128;2023-03-31T04:41:41;10.68;;;6.30;;
24739;SDS011;45234;48.148;17.128;2023-03-31T04:44:10;11.93;;;6.78;;
24739;SDS011;45234;48.148;17.128;2023-03-31T04:46:37;8.15;;;5.38;;
24739;SDS011;45234;48.148;17.128;2023-03-31T04:49:04;6.65;;;4.28;;
24739;SDS011;45234;48.148;17.128;2023-03-31T04:51:30;8.57;;;4.55;;
24739;SDS011;45234;48.148;17.128;2023-03-31T04:53:57;7.72;;;4.75;;
24739;SDS011;45234;48.148;17.128;2023-03-31T04:56:24;6.88;;;4.00;;
24739;SDS011;45234;48.148;17.128;2023-03-31T04:58:52;5.72;;;3.92;;
24739;SDS011;45234;48.148;17.128;2023-03-31T05:01:19;8.10;;;3.80;;
24739;SDS011;45234;48.148;17.128;2023-03-31T05:03:46;5.15;;;3.50;;
24739;SDS011;45234;48.148;17.128;2023-03-31T05:06:13;5.93;;;4.13;;
24739;SDS011;45234;48.148;17.128;2023-03-31T05:08:41;8.50;;;4.53;;
24739;SDS011;45234;48.148;17.128;2023-03-31T05:11:08;4.35;;;3.75;;
24739;SDS011;45234;48.148;17.128;2023-03-31T05:13:36;7.75;;;4.10;;
24739;SDS011;45234;48.148;17.128;2023-03-31T05:16:09;6.90;;;3.88;;
24739;SDS011;45234;48.148;17.128;2023-03-31T05:18:39;6.25;;;4.07;;
24739;SDS011;45234;48.148;17.128;2023-03-31T05:21:17;5.35;;;3.88;;
24739;SDS011;45234;48.148;17.128;2023-03-31T05:23:45;8.10;;;4.50;;
24739;SDS011;45234;48.148;17.128;2023-03-31T05:26:13;8.60;;;4.18;;
24739;SDS011;45234;48.148;17.128;2023-03-31T05:28:41;8.70;;;4.68;;
24739;SDS011;45234;48.148;17.128;2023-03-31T05:31:08;5.90;;;4.25;;
24739;SDS011;45234;48.148;17.128;2023-03-31T05:33:40;9.98;;;5.80;;
24739;SDS011;45234;48.148;17.128;2023-03-31T05:36:08;8.15;;;4.90;;
24739;SDS011;45234;48.148;17.128;2023-03-31T05:38:41;7.55;;;4.80;;
24739;SDS011;45234;48.148;17.128;2023-03-31T05:41:08;9.40;;;5.05;;
24739;SDS011;45234;48.148;17.128;2023-03-31T05:43:36;6.65;;;4.72;;
24739;SDS011;45234;48.148;17.128;2023-03-31T05:46:04;7.30;;;3.80;;
24739;SDS011;45234;48.148;17.128;2023-03-31T05:48:32;6.85;;;4.20;;
24739;SDS011;45234;48.148;17.128;2023-03-31T05:50:59;7.93;;;3.42;;
24739;SDS011;45234;48.148;17.128;2023-03-31T05:53:26;6.32;;;3.45;;
24739;SDS011;45234;48.148;17.128;2023-03-31T05:56:00;8.63;;;3.70;;
24739;SDS011;45234;48.148;17.128;2023-03-31T05:58:32;7.20;;;3.35;;
24739;SDS011;45234;48.148;17.128;2023-03-31T06:01:03;4.95;;;3.50;;
24739;SDS011;45234;48.148;17.128;2023-03-31T06:03:33;7.07;;;3.63;;
24739;SDS011;45234;48.148;17.128;2023-03-31T06:06:02;7.43;;;3.80;;
24739;SDS011;45234;48.148;17.128;2023-03-31T06:08:30;6.30;;;3.80;;
24739;SDS011;45234;48.148;17.128;2023-03-31T06:11:03;5.93;;;4.07;;
24739;SDS011;45234;48.148;17.128;2023-03-31T06:13:32;6.55;;;4.20;;
24739;SDS011;45234;48.148;17.128;2023-03-31T06:18:33;5.40;;;3.50;;
24739;SDS011;45234;48.148;17.128;2023-03-31T06:21:01;4.97;;;3.47;;
24739;SDS011;45234;48.148;17.128;2023-03-31T06:23:29;5.65;;;3.65;;
24739;SDS011;45234;48.148;17.128;2023-03-31T06:26:00;7.93;;;3.95;;
24739;SDS011;45234;48.148;17.128;2023-03-31T06:28:30;7.57;;;4.15;;
24739;SDS011;45234;48.148;17.128;2023-03-31T06:31:00;6.18;;;4.10;;
24739;SDS011;45234;48.148;17.128;2023-03-31T06:33:28;5.85;;;3.80;;
24739;SDS011;45234;48.148;17.128;2023-03-31T06:35:56;7.75;;;3.88;;
24739;SDS011;45234;48.148;17.128;2023-03-31T06:38:24;5.35;;;3.80;;
24739;SDS011;45234;48.148;17.128;2023-03-31T06:40:51;7.35;;;5.15;;
24739;SDS011;45234;48.148;17.128;2023-03-31T06:43:18;12.27;;;5.25;;
24739;SDS011;45234;48.148;17.128;2023-03-31T06:45:46;10.00;;;5.60;;
24739;SDS011;45234;48.148;17.128;2023-03-31T06:48:15;10.93;;;5.60;;
24739;SDS011;45234;48.148;17.128;2023-03-31T06:50:43;7.40;;;4.70;;
24739;SDS011;45234;48.148;17.128;2023-03-31T06:53:11;9.10;;;5.32;;
24739;SDS011;45234;48.148;17.128;2023-03-31T06:55:38;13.68;;;4.90;;
24739;SDS011;45234;48.148;17.128;2023-03-31T06:58:05;7.82;;;5.65;;
24739;SDS011;45234;48.148;17.128;2023-03-31T07:00:32;8.88;;;5.35;;
24739;SDS011;45234;48.148;17.128;2023-03-31T07:02:59;9.68;;;5.35;;
24739;SDS011;45234;48.148;17.128;2023-03-31T07:05:26;6.95;;;4.78;;
24739;SDS011;45234;48.148;17.128;2023-03-31T07:07:55;7.80;;;5.05;;
24739;SDS011;45234;48.148;17.128;2023-03-31T07:10:23;7.10;;;5.05;;
24739;SDS011;45234;48.148;17.128;2023-03-31T07:12:51;8.90;;;5.05;;
24739;SDS011;45234;48.148;17.128;2023-03-31T07:15:19;10.27;;;5.85;;
24739;SDS011;45234;48.148;17.128;2023-03-31T07:17:46;8.02;;;5.95;;
24739;SDS011;45234;48.148;17.128;2023-03-31T07:20:16;8.45;;;5.38;;
24739;SDS011;45234;48.148;17.128;2023-03-31T07:22:44;12.00;;;5.28;;
24739;SDS011;45234;48.148;17.128;2023-03-31T07:25:13;8.18;;;4.80;;
24739;SDS011;45234;48.148;17.128;2023-03-31T07:27:41;8.80;;;4.75;;
24739;SDS011;45234;48.148;17.128;2023-03-31T07:30:09;8.82;;;4.13;;
24739;SDS011;45234;48.148;17.128;2023-03-31T07:32:41;4.68;;;3.95;;
24739;SDS011;45234;48.148;17.128;2023-03-31T07:35:11;7.55;;;4.07;;
24739;SDS011;45234;48.148;17.128;2023-03-31T07:37:38;5.68;;;4.47;;
24739;SDS011;45234;48.148;17.128;2023-03-31T07:40:07;11.32;;;4.07;;
24739;SDS011;45234;48.148;17.128;2023-03-31T07:42:35;6.22;;;4.40;;
24739;SDS011;45234;48.148;17.128;2023-03-31T07:45:02;5.45;;;4.35;;
24739;SDS011;45234;48.148;17.128;2023-03-31T07:47:32;6.63;;;3.95;;
24739;SDS011;45234;48.148;17.128;2023-03-31T07:50:00;11.45;;;4.13;;
24739;SDS011;45234;48.148;17.128;2023-03-31T07:52:28;6.15;;;3.78;;
24739;SDS011;45234;48.148;17.128;2023-03-31T07:54:56;8.27;;;3.80;;
24739;SDS011;45234;48.148;17.128;2023-03-31T07:57:22;5.30;;;3.50;;
24739;SDS011;45234;48.148;17.128;2023-03-31T07:59:49;7.03;;;3.97;;
24739;SDS011;45234;48.148;17.128;2023-03-31T08:02:16;5.85;;;3.67;;
24739;SDS011;45234;48.148;17.128;2023-03-31T08:04:44;7.95;;;3.28;;
24739;SDS011;45234;48.148;17.128;2023-03-31T08:07:11;5.25;;;3.85;;
24739;SDS011;45234;48.148;17.128;2023-03-31T08:09:40;9.40;;;3.17;;
24739;SDS011;45234;48.148;17.128;2023-03-31T08:12:10;7.25;;;3.72;;
24739;SDS011;45234;48.148;17.128;2023-03-31T08:14:38;9.85;;;3.47;;
24739;SDS011;45234;48.148;17.128;2023-03-31T08:17:06;7.32;;;3.72;;
24739;SDS011;45234;48.148;17.128;2023-03-31T08:19:37;5.03;;;3.58;;
24739;SDS011;45234;48.148;17.128;2023-03-31T08:22:04;4.25;;;3.67;;
24739;SDS011;45234;48.148;17.128;2023-03-31T08:24:30;13.38;;;2.88;;
24739;SDS011;45234;48.148;17.128;2023-03-31T08:26:57;4.18;;;3.75;;
24739;SDS011;45234;48.148;17.128;2023-03-31T08:29:24;3.45;;;2.75;;
24739;SDS011;45234;48.148;17.128;2023-03-31T08:31:52;5.22;;;3.25;;
24739;SDS011;45234;48.148;17.128;2023-03-31T08:34:19;4.28;;;2.60;;
24739;SDS011;45234;48.148;17.128;2023-03-31T08:36:46;7.40;;;3.00;;
24739;SDS011;45234;48.148;17.128;2023-03-31T08:39:13;4.13;;;2.75;;
24739;SDS011;45234;48.148;17.128;2023-03-31T08:41:49;11.60;;;3.95;;
24739;SDS011;45234;48.148;17.128;2023-03-31T08:44:34;5.95;;;3.25;;
24739;SDS011;45234;48.148;17.128;2023-03-31T08:47:21;4.65;;;3.03;;
24739;SDS011;45234;48.148;17.128;2023-03-31T08:49:55;9.10;;;3.25;;
24739;SDS011;45234;48.148;17.128;2023-03-31T08:55:57;5.78;;;2.92;;
24739;SDS011;45234;48.148;17.128;2023-03-31T09:01:53;3.22;;;2.90;;
24739;SDS011;45234;48.148;17.128;2023-03-31T09:18:14;3.60;;;3.10;;
24739;SDS011;45234;48.148;17.128;2023-03-31T09:20:52;5.85;;;3.55;;
24739;SDS011;45234;48.148;17.128;2023-03-31T09:23:52;8.38;;;4.20;;
24739;SDS011;45234;48.148;17.128;2023-03-31T09:26:40;4.80;;;3.15;;
24739;SDS011;45234;48.148;17.128;2023-03-31T09:29:21;7.80;;;3.83;;
24739;SDS011;45234;48.148;17.128;2023-03-31T09:32:15;6.38;;;3.70;;
24739;SDS011;45234;48.148;17.128;2023-03-31T09:34:59;3.88;;;3.58;;
24739;SDS011;45234;48.148;17.128;2023-03-31T09:37:37;6.13;;;3.55;;
24739;SDS011;45234;48.148;17.128;2023-03-31T09:40:04;6.35;;;3.30;;
24739;SDS011;45234;48.148;17.128;2023-03-31T09:42:33;5.85;;;3.60;;
24739;SDS011;45234;48.148;17.128;2023-03-31T09:45:01;4.88;;;3.72;;
24739;SDS011;45234;48.148;17.128;2023-03-31T09:50:06;11.75;;;6.22;;
24739;SDS011;45234;48.148;17.128;2023-03-31T09:55:23;9.25;;;5.97;;
24739;SDS011;45234;48.148;17.128;2023-03-31T09:58:11;10.20;;;6.93;;
24739;SDS011;45234;48.148;17.128;2023-03-31T10:00:40;10.07;;;6.15;;
24739;SDS011;45234;48.148;17.128;2023-03-31T10:03:11;7.95;;;5.32;;
24739;SDS011;45234;48.148;17.128;2023-03-31T10:05:47;9.50;;;6.13;;
24739;SDS011;45234;48.148;17.128;2023-03-31T10:08:23;10.95;;;6.97;;
24739;SDS011;45234;48.148;17.128;2023-03-31T10:16:31;7.65;;;6.60;;
24739;SDS011;45234;48.148;17.128;2023-03-31T10:19:11;7.77;;;6.23;;
24739;SDS011;45234;48.148;17.128;2023-03-31T10:21:39;8.63;;;6.50;;
24739;SDS011;45234;48.148;17.128;2023-03-31T10:24:09;10.25;;;6.32;;
24739;SDS011;45234;48.148;17.128;2023-03-31T10:26:36;8.15;;;6.57;;
24739;SDS011;45234;48.148;17.128;2023-03-31T10:29:15;8.20;;;6.70;;
24739;SDS011;45234;48.148;17.128;2023-03-31T10:31:57;11.27;;;7.50;;
24739;SDS011;45234;48.148;17.128;2023-03-31T10:34:30;10.02;;;8.07;;
24739;SDS011;45234;48.148;17.128;2023-03-31T10:36:57;11.95;;;8.15;;
24739;SDS011;45234;48.148;17.128;2023-03-31T10:39:27;9.95;;;7.88;;
24739;SDS011;45234;48.148;17.128;2023-03-31T10:41:57;8.63;;;7.57;;
24739;SDS011;45234;48.148;17.128;2023-03-31T10:44:35;8.85;;;7.90;;
24739;SDS011;45234;48.148;17.128;2023-03-31T10:49:40;11.07;;;7.80;;
24739;SDS011;45234;48.148;17.128;2023-03-31T10:52:27;10.23;;;7.97;;
24739;SDS011;45234;48.148;17.128;2023-03-31T10:54:58;9.35;;;7.70;;
24739;SDS011;45234;48.148;17.128;2023-03-31T11:00:26;10.30;;;7.72;;
24739;SDS011;45234;48.148;17.128;2023-03-31T11:03:16;13.23;;;8.02;;
24739;SDS011;45234;48.148;17.128;2023-03-31T11:05:59;8.68;;;7.53;;
24739;SDS011;45234;48.148;17.128;2023-03-31T11:08:51;11.02;;;7.63;;
24739;SDS011;45234;48.148;17.128;2023-03-31T11:23:16;10.98;;;7.75;;
24739;SDS011;45234;48.148;17.128;2023-03-31T11:26:01;9.63;;;7.72;;
24739;SDS011;45234;48.148;17.128;2023-03-31T11:28:38;9.73;;;7.85;;
24739;SDS011;45234;48.148;17.128;2023-03-31T11:36:56;8.90;;;7.97;;
24739;SDS011;45234;48.148;17.128;2023-03-31T11:42:25;12.05;;;7.63;;
24739;SDS011;45234;48.148;17.128;2023-03-31T11:45:10;11.85;;;7.60;;
24739;SDS011;45234;48.148;17.128;2023-03-31T11:47:43;9.65;;;7.43;;
24739;SDS011;45234;48.148;17.128;2023-03-31T11:50:20;7.10;;;6.40;;
24739;SDS011;45234;48.148;17.128;2023-03-31T11:52:59;9.07;;;7.35;;
24739;SDS011;45234;48.148;17.128;2023-03-31T11:55:30;8.27;;;6.15;;
24739;SDS011;45234;48.148;17.128;2023-03-31T12:05:55;4.47;;;3.42;;
24739;SDS011;45234;48.148;17.128;2023-03-31T12:11:05;6.00;;;3.63;;
24739;SDS011;45234;48.148;17.128;2023-03-31T12:21:21;4.28;;;3.65;;
24739;SDS011;45234;48.148;17.128;2023-03-31T12:23:49;3.70;;;2.75;;
24739;SDS011;45234;48.148;17.128;2023-03-31T12:26:23;5.65;;;2.65;;
24739;SDS011;45234;48.148;17.128;2023-03-31T12:29:25;4.38;;;2.55;;
24739;SDS011;45234;48.148;17.128;2023-03-31T12:32:13;6.70;;;4.18;;
24739;SDS011;45234;48.148;17.128;2023-03-31T12:34:47;12.77;;;3.55;;
24739;SDS011;45234;48.148;17.128;2023-03-31T12:37:27;4.07;;;3.15;;
24739;SDS011;45234;48.148;17.128;2023-03-31T12:40:09;2.88;;;2.45;;
24739;SDS011;45234;48.148;17.128;2023-03-31T12:43:08;3.17;;;2.88;;
24739;SDS011;45234;48.148;17.128;2023-03-31T12:45:43;3.95;;;3.13;;
24739;SDS011;45234;48.148;17.128;2023-03-31T12:49:02;3.85;;;2.58;;
24739;SDS011;45234;48.148;17.128;2023-03-31T12:54:13;4.35;;;2.40;;
24739;SDS011;45234;48.148;17.128;2023-03-31T12:59:33;3.60;;;2.22;;
24739;SDS011;45234;48.148;17.128;2023-03-31T13:04:40;7.60;;;2.70;;
24739;SDS011;45234;48.148;17.128;2023-03-31T13:09:58;3.60;;;2.40;;
24739;SDS011;45234;48.148;17.128;2023-03-31T13:12:28;3.40;;;2.22;;
24739;SDS011;45234;48.148;17.128;2023-03-31T13:14:57;4.88;;;3.33;;
24739;SDS011;45234;48.148;17.128;2023-03-31T13:20:24;3.05;;;2.60;;
24739;SDS011;45234;48.148;17.128;2023-03-31T13:25:51;3.78;;;3.05;;
24739;SDS011;45234;48.148;17.128;2023-03-31T13:31:06;3.88;;;2.47;;
24739;SDS011;45234;48.148;17.128;2023-03-31T13:36:37;3.97;;;2.70;;
24739;SDS011;45234;48.148;17.128;2023-03-31T13:40:09;4.35;;;2.72;;
24739;SDS011;45234;48.148;17.128;2023-03-31T13:42:31;5.07;;;3.40;;
24739;SDS011;45234;48.148;17.128;2023-03-31T13:48:45;4.70;;;2.88;;
24739;SDS011;45234;48.148;17.128;2023-03-31T13:56:08;3.20;;;2.53;;
24739;SDS011;45234;48.148;17.128;2023-03-31T14:06:46;3.30;;;2.53;;
24739;SDS011;45234;48.148;17.128;2023-03-31T14:11:48;4.65;;;2.40;;
24739;SDS011;45234;48.148;17.128;2023-03-31T14:14:16;6.18;;;2.92;;
24739;SDS011;45234;48.148;17.128;2023-03-31T14:22:18;7.65;;;2.40;;
24739;SDS011;45234;48.148;17.128;2023-03-31T14:25:10;4.03;;;2.67;;
24739;SDS011;45234;48.148;17.128;2023-03-31T14:30:42;7.38;;;2.80;;
24739;SDS011;45234;48.148;17.128;2023-03-31T14:38:36;5.18;;;2.50;;
24739;SDS011;45234;48.148;17.128;2023-03-31T14:41:03;5.43;;;2.75;;
24739;SDS011;45234;48.148;17.128;2023-03-31T14:43:34;2.95;;;2.40;;
24739;SDS011;45234;48.148;17.128;2023-03-31T14:46:06;3.08;;;2.60;;
24739;SDS011;45234;48.148;17.128;2023-03-31T14:48:39;6.95;;;2.55;;
24739;SDS011;45234;48.148;17.128;2023-03-31T14:51:15;4.07;;;2.47;;
24739;SDS011;45234;48.148;17.128;2023-03-31T14:53:59;3.40;;;2.40;;
24739;SDS011;45234;48.148;17.128;2023-03-31T14:56:33;4.22;;;2.50;;
24739;SDS011;45234;48.148;17.128;2023-03-31T14:59:05;4.80;;;2.75;;
24739;SDS011;45234;48.148;17.128;2023-03-31T15:01:33;6.68;;;2.47;;
24739;SDS011;45234;48.148;17.128;2023-03-31T15:04:06;6.43;;;2.47;;
24739;SDS011;45234;48.148;17.128;2023-03-31T15:06:47;5.57;;;2.85;;
24739;SDS011;45234;48.148;17.128;2023-03-31T15:11:52;3.70;;;2.50;;
24739;SDS011;45234;48.148;17.128;2023-03-31T15:14:41;5.30;;;3.22;;
24739;SDS011;45234;48.148;17.128;2023-03-31T15:17:18;5.13;;;3.00;;
24739;SDS011;45234;48.148;17.128;2023-03-31T15:19:56;5.95;;;2.50;;
24739;SDS011;45234;48.148;17.128;2023-03-31T15:22:29;6.97;;;2.42;;
24739;SDS011;45234;48.148;17.128;2023-03-31T15:24:56;3.55;;;2.80;;
24739;SDS011;45234;48.148;17.128;2023-03-31T15:30:06;5.10;;;2.80;;
24739;SDS011;45234;48.148;17.128;2023-03-31T15:32:40;3.78;;;3.00;;
24739;SDS011;45234;48.148;17.128;2023-03-31T15:35:15;5.35;;;2.60;;
24739;SDS011;45234;48.148;17.128;2023-03-31T15:37:50;3.70;;;2.55;;
24739;SDS011;45234;48.148;17.128;2023-03-31T15:40:30;3.20;;;2.88;;
24739;SDS011;45234;48.148;17.128;2023-03-31T15:45:59;4.97;;;2.65;;
24739;SDS011;45234;48.148;17.128;2023-03-31T15:48:28;3.00;;;2.50;;
24739;SDS011;45234;48.148;17.128;2023-03-31T15:53:35;7.47;;;2.70;;
24739;SDS011;45234;48.148;17.128;2023-03-31T15:56:09;5.13;;;2.58;;
24739;SDS011;45234;48.148;17.128;2023-03-31T15:59:01;3.50;;;1.05;;
24739;SDS011;45234;48.148;17.128;2023-03-31T16:01:30;1.88;;;1.30;;
24739;SDS011;45234;48.148;17.128;2023-03-31T16:04:00;2.33;;;1.15;;
24739;SDS011;45234;48.148;17.128;2023-03-31T16:06:33;5.00;;;1.00;;
24739;SDS011;45234;48.148;17.128;2023-03-31T16:09:07;1.58;;;1.05;;
24739;SDS011;45234;48.148;17.128;2023-03-31T16:11:42;2.08;;;1.20;;
24739;SDS011;45234;48.148;17.128;2023-03-31T16:14:34;3.67;;;1.60;;
24739;SDS011;45234;48.148;17.128;2023-03-31T16:17:05;2.88;;;2.00;;
24739;SDS011;45234;48.148;17.128;2023-03-31T16:19:38;3.40;;;1.67;;
24739;SDS011;45234;48.148;17.128;2023-03-31T16:22:11;2.45;;;1.17;;
24739;SDS011;45234;48.148;17.128;2023-03-31T16:24:46;3.40;;;1.35;;
24739;SDS011;45234;48.148;17.128;2023-03-31T16:27:13;3.95;;;1.20;;
24739;SDS011;45234;48.148;17.128;2023-03-31T16:29:40;6.03;;;1.63;;
24739;SDS011;45234;48.148;17.128;2023-03-31T16:32:09;2.28;;;1.50;;
24739;SDS011;45234;48.148;17.128;2023-03-31T16:34:50;2.30;;;1.10;;
24739;SDS011;45234;48.148;17.128;2023-03-31T16:37:25;2.13;;;0.98;;
24739;SDS011;45234;48.148;17.128;2023-03-31T16:39:52;1.70;;;0.93;;
24739;SDS011;45234;48.148;17.128;2023-03-31T16:42:20;1.88;;;0.75;;
24739;SDS011;45234;48.148;17.128;2023-03-31T16:44:47;5.70;;;1.13;;
24739;SDS011;45234;48.148;17.128;2023-03-31T16:47:34;1.75;;;0.80;;
24739;SDS011;45234;48.148;17.128;2023-03-31T16:50:02;2.88;;;1.38;;
24739;SDS011;45234;48.148;17.128;2023-03-31T16:52:34;18.50;;;13.13;;
24739;SDS011;45234;48.148;17.128;2023-03-31T16:55:01;1.30;;;0.77;;
24739;SDS011;45234;48.148;17.128;2023-03-31T16:57:28;2.10;;;1.55;;
24739;SDS011;45234;48.148;17.128;2023-03-31T16:59:56;5.50;;;1.23;;
24739;SDS011;45234;48.148;17.128;2023-03-31T17:02:24;3.17;;;1.10;;
24739;SDS011;45234;48.148;17.128;2023-03-31T17:04:51;1.77;;;1.00;;
24739;SDS011;45234;48.148;17.128;2023-03-31T17:07:24;1.70;;;1.30;;
24739;SDS011;45234;48.148;17.128;2023-03-31T17:09:51;2.10;;;0.93;;
24739;SDS011;45234;48.148;17.128;2023-03-31T17:12:18;2.80;;;1.20;;
24739;SDS011;45234;48.148;17.128;2023-03-31T17:14:45;2.83;;;0.70;;
24739;SDS011;45234;48.148;17.128;2023-03-31T17:17:12;1.98;;;1.08;;
24739;SDS011;45234;48.148;17.128;2023-03-31T17:19:42;2.03;;;0.80;;
24739;SDS011;45234;48.148;17.128;2023-03-31T17:22:09;4.18;;;1.90;;
24739;SDS011;45234;48.148;17.128;2023-03-31T17:24:36;2.20;;;1.10;;
24739;SDS011;45234;48.148;17.128;2023-03-31T17:27:03;2.28;;;1.00;;
24739;SDS011;45234;48.148;17.128;2023-03-31T17:29:30;2.15;;;1.23;;
24739;SDS011;45234;48.148;17.128;2023-03-31T17:31:57;1.45;;;0.95;;
24739;SDS011;45234;48.148;17.128;2023-03-31T17:34:23;1.92;;;1.20;;
24739;SDS011;45234;48.148;17.128;2023-03-31T17:36:51;1.80;;;1.00;;
24739;SDS011;45234;48.148;17.128;2023-03-31T17:39:20;2.80;;;1.73;;
24739;SDS011;45234;48.148;17.128;2023-03-31T17:41:48;2.70;;;1.05;;
24739;SDS011;45234;48.148;17.128;2023-03-31T17:44:15;3.35;;;1.20;;
24739;SDS011;45234;48.148;17.128;2023-03-31T17:46:42;3.42;;;1.35;;
24739;SDS011;45234;48.148;17.128;2023-03-31T17:49:09;6.18;;;1.40;;
24739;SDS011;45234;48.148;17.128;2023-03-31T17:51:36;2.63;;;1.15;;
24739;SDS011;45234;48.148;17.128;2023-03-31T17:54:02;4.28;;;1.00;;
24739;SDS011;45234;48.148;17.128;2023-03-31T17:56:29;1.45;;;0.90;;
24739;SDS011;45234;48.148;17.128;2023-03-31T17:58:56;5.20;;;1.45;;
24739;SDS011;45234;48.148;17.128;2023-03-31T18:01:23;2.97;;;1.40;;
24739;SDS011;45234;48.148;17.128;2023-03-31T18:03:50;6.32;;;2.13;;
24739;SDS011;45234;48.148;17.128;2023-03-31T18:06:20;3.03;;;1.55;;
24739;SDS011;45234;48.148;17.128;2023-03-31T18:08:46;6.07;;;1.48;;